Time;durP1;ratioP1;P1;durP2;ratioP2;P2;SDS_P1;SDS_P2;PMS_P1;PMS_P2;Temp;Humidity;BMP_temperature;BMP_pressure;BME280_temperature;BME280_humidity;BME280_pressure;Samples;Min_cycle;Max_cycle;Signal;HPM_P1;HPM_P2
2023/12/07 00:01:18;;;;;;;16.07;11.90;;;;;;;0.37;100.00;101856.75;5110339;28;20424;-58
2023/12/07 00:03:43;;;;;;;16.80;11.50;;;;;;;0.35;100.00;101858.47;5103395;28;20020;-58
2023/12/07 00:06:11;;;;;;;19.13;11.50;;;;;;;0.35;100.00;101847.16;5095790;28;20011;-58
2023/12/07 00:08:38;;;;;;;14.90;11.10;;;;;;;0.35;100.00;101852.38;5093252;28;20082;-58
2023/12/07 00:11:04;;;;;;;18.23;13.20;;;;;;;0.36;100.00;101857.63;5111808;28;20392;-58
2023/12/07 00:13:29;;;;;;;17.07;12.80;;;;;;;0.39;100.00;101857.59;5111551;28;20072;-58
2023/12/07 00:15:54;;;;;;;16.57;12.77;;;;;;;0.41;100.00;101853.25;5092621;28;20020;-58
2023/12/07 00:18:20;;;;;;;17.97;13.23;;;;;;;0.41;100.00;101848.03;5112011;28;20098;-58
2023/12/07 00:20:45;;;;;;;22.53;13.37;;;;;;;0.31;100.00;101840.22;5093170;28;20012;-59
2023/12/07 00:23:11;;;;;;;22.00;15.43;;;;;;;0.35;100.00;101849.75;5111866;28;20428;-59
2023/12/07 00:25:37;;;;;;;19.43;13.20;;;;;;;0.29;100.00;101849.81;5093328;28;20012;-58
2023/12/07 00:28:03;;;;;;;18.73;14.00;;;;;;;0.27;100.00;101852.44;5111878;28;20472;-58
2023/12/07 00:30:28;;;;;;;19.30;13.50;;;;;;;0.24;100.00;101847.22;5092976;28;20054;-58
2023/12/07 00:32:54;;;;;;;20.67;13.23;;;;;;;0.29;100.00;101853.28;5111183;28;20055;-58
2023/12/07 00:35:22;;;;;;;21.30;13.70;;;;;;;0.24;100.00;101855.06;5111315;28;20024;-58
2023/12/07 00:37:47;;;;;;;19.87;13.20;;;;;;;0.22;100.00;101855.06;5110482;28;20377;-58
2023/12/07 00:40:13;;;;;;;18.63;12.43;;;;;;;0.25;100.00;101859.41;5099200;28;20053;-58
2023/12/07 00:42:38;;;;;;;17.80;12.73;;;;;;;0.22;100.00;101847.22;5110004;28;20020;-58
2023/12/07 00:45:04;;;;;;;18.67;12.97;;;;;;;0.19;100.00;101841.13;5103557;28;20015;-58
2023/12/07 00:47:29;;;;;;;18.07;13.00;;;;;;;0.25;100.00;101848.09;5114439;28;20034;-59
2023/12/07 00:49:54;;;;;;;16.97;13.73;;;;;;;0.21;100.00;101852.47;5103885;28;20080;-58
2023/12/07 00:52:20;;;;;;;18.30;13.13;;;;;;;0.14;100.00;101835.91;5114218;28;20016;-58
2023/12/07 00:54:47;;;;;;;19.07;13.20;;;;;;;0.13;100.00;101847.25;5113796;28;20468;-58
2023/12/07 00:57:13;;;;;;;18.73;12.83;;;;;;;0.13;100.00;101856.84;5113566;28;20145;-58
2023/12/07 00:59:38;;;;;;;17.90;14.00;;;;;;;0.12;100.00;101847.25;5113789;28;20102;-58
2023/12/07 01:02:04;;;;;;;15.70;12.23;;;;;;;0.07;100.00;101849.03;5104246;28;20063;-58
2023/12/07 01:04:31;;;;;;;19.00;12.00;;;;;;;0.02;100.00;101842.94;5113615;28;20075;-59
2023/12/07 01:06:56;;;;;;;18.50;12.83;;;;;;;0.05;100.00;101854.25;5113606;28;20040;-58
2023/12/07 01:09:22;;;;;;;19.13;12.57;;;;;;;0.08;100.00;101858.59;5102498;28;20019;-58
2023/12/07 01:11:48;;;;;;;16.27;12.50;;;;;;;0.02;100.00;101851.66;5103952;28;20026;-58
2023/12/07 01:14:14;;;;;;;22.27;13.00;;;;;;;0.05;100.00;101875.16;5113476;28;20495;-59
2023/12/07 01:16:39;;;;;;;16.60;12.73;;;;;;;0.02;100.00;101862.09;5105486;28;20038;-58
2023/12/07 01:19:06;;;;;;;18.50;12.53;;;;;;;0.01;100.00;101868.22;5102017;28;20019;-58
2023/12/07 01:21:32;;;;;;;17.57;14.13;;;;;;;0.01;100.00;101873.44;5113289;28;20379;-58
2023/12/07 01:23:58;;;;;;;20.63;13.10;;;;;;;0.00;100.00;101866.50;5103031;28;20015;-58
2023/12/07 01:26:23;;;;;;;17.87;13.27;;;;;;;-0.01;100.00;101860.38;5103469;28;20060;-58
2023/12/07 01:28:49;;;;;;;17.37;12.90;;;;;;;0.01;100.00;101857.75;5101570;28;20464;-58
2023/12/07 01:31:14;;;;;;;18.57;12.93;;;;;;;0.03;100.00;101863.88;5099759;28;20055;-58
2023/12/07 01:33:40;;;;;;;19.90;13.03;;;;;;;0.00;100.00;101866.50;5113674;28;20015;-58
2023/12/07 01:36:05;;;;;;;20.23;13.50;;;;;;;0.01;100.00;101870.84;5100693;28;20023;-58
2023/12/07 01:38:33;;;;;;;16.50;12.77;;;;;;;0.00;100.00;101866.50;5113072;28;20050;-58
2023/12/07 01:40:59;;;;;;;19.57;13.67;;;;;;;-0.01;100.00;101859.50;5112652;28;20103;-58
2023/12/07 01:43:26;;;;;;;20.07;13.17;;;;;;;-0.04;100.00;101870.84;5112982;28;20110;-58
2023/12/07 01:45:55;;;;;;;19.00;12.80;;;;;;;-0.10;100.00;101868.25;5113158;28;20379;-58
2023/12/07 01:48:23;;;;;;;19.63;13.23;;;;;;;-0.07;100.00;101878.69;5100226;28;20072;-59
2023/12/07 01:50:49;;;;;;;15.87;12.43;;;;;;;-0.10;100.00;101864.75;5112913;28;20023;-58
2023/12/07 01:53:15;;;;;;;25.30;15.70;;;;;;;-0.04;100.00;101869.97;5113187;28;20031;-59
2023/12/07 01:55:41;;;;;;;20.37;14.10;;;;;;;-0.01;100.00;101862.13;5112458;28;20426;-58
2023/12/07 01:58:07;;;;;;;19.20;14.60;;;;;;;-0.04;100.00;101860.38;5112734;28;20020;-58
2023/12/07 02:00:33;;;;;;;31.20;14.80;;;;;;;-0.02;100.00;101860.38;5111784;28;20462;-58
2023/12/07 02:03:04;;;;;;;22.17;13.37;;;;;;;0.02;100.00;101875.19;5112896;28;20020;-59
2023/12/07 02:05:29;;;;;;;23.37;15.40;;;;;;;0.07;100.00;101877.78;5102015;28;20211;-58
2023/12/07 02:07:57;;;;;;;36.50;16.27;;;;;;;0.10;100.00;101873.41;5105338;28;20043;-58
2023/12/07 02:10:24;;;;;;;58.93;14.63;;;;;;;0.10;100.00;101860.34;5099716;28;20024;-58
2023/12/07 02:12:49;;;;;;;79.40;18.43;;;;;;;0.08;100.00;101862.09;5112434;28;20050;-58
2023/12/07 02:15:15;;;;;;;48.60;15.43;;;;;;;0.16;100.00;101878.63;5111289;28;20028;-58
2023/12/07 02:17:40;;;;;;;49.60;14.53;;;;;;;0.20;100.00;101880.34;5112706;28;20024;-58
2023/12/07 02:20:21;;;;;;;64.10;16.13;;;;;;;0.16;100.00;101872.53;5112543;28;20019;-59
2023/12/07 02:22:54;;;;;;;52.13;15.40;;;;;;;0.16;100.00;101875.16;5112733;28;20488;-58
2023/12/07 02:25:28;;;;;;;61.30;14.87;;;;;;;0.19;100.00;101877.75;5112137;28;20484;-58
2023/12/07 02:27:54;;;;;;;71.20;18.97;;;;;;;0.14;100.00;101888.22;5111717;28;20030;-59
2023/12/07 02:30:19;;;;;;;32.07;13.90;;;;;;;0.09;100.00;101886.47;5111299;28;20028;-58
2023/12/07 02:32:47;;;;;;;38.33;14.60;;;;;;;0.12;100.00;101884.75;5112430;28;20027;-58
2023/12/07 02:35:13;;;;;;;65.57;16.30;;;;;;;0.14;100.00;101890.84;5104290;28;20023;-58
2023/12/07 02:37:47;;;;;;;53.30;14.77;;;;;;;0.07;100.00;101881.28;5112404;28;20106;-58
2023/12/07 02:40:17;;;;;;;81.67;20.07;;;;;;;0.11;100.00;101887.34;5109526;28;20026;-58
2023/12/07 02:42:45;;;;;;;22.33;13.60;;;;;;;0.11;100.00;101890.84;5111602;28;20090;-59
2023/12/07 02:45:12;;;;;;;40.13;14.00;;;;;;;0.09;100.00;101881.25;5110697;28;20093;-59
2023/12/07 02:47:38;;;;;;;44.47;14.00;;;;;;;0.05;100.00;101874.31;5112485;28;20024;-58
2023/12/07 02:50:06;;;;;;;25.37;13.87;;;;;;;0.11;100.00;101876.91;5112279;28;20030;-58
2023/12/07 02:52:31;;;;;;;83.37;14.23;;;;;;;0.12;100.00;101873.41;5111379;28;20088;-58
2023/12/07 02:54:56;;;;;;;58.80;14.53;;;;;;;0.06;100.00;101882.16;5111554;28;20071;-58
2023/12/07 02:57:22;;;;;;;91.27;16.50;;;;;;;0.02;100.00;101875.19;5111407;28;20050;-58
2023/12/07 02:59:50;;;;;;;44.67;15.57;;;;;;;0.02;100.00;101880.41;5111081;28;20550;-58
2023/12/07 03:02:15;;;;;;;43.77;14.83;;;;;;;0.05;100.00;101882.16;5111398;28;20115;-58
2023/12/07 03:04:41;;;;;;;69.93;14.50;;;;;;;0.05;100.00;101884.78;5097771;28;20023;-58
2023/12/07 03:07:09;;;;;;;99.53;16.90;;;;;;;-0.01;100.00;101876.06;5101992;28;20051;-58
2023/12/07 03:09:34;;;;;;;66.10;14.83;;;;;;;-0.02;100.00;101887.41;5066582;28;20477;-58
2023/12/07 03:12:00;;;;;;;62.63;14.00;;;;;;;0.01;100.00;101878.69;5112010;28;20033;-58
2023/12/07 03:14:25;;;;;;;85.53;18.10;;;;;;;-0.09;100.00;101871.72;5096289;28;20038;-58
2023/12/07 03:16:53;;;;;;;56.03;12.73;;;;;;;-0.01;100.00;101883.91;5097791;28;20045;-58
2023/12/07 03:19:18;;;;;;;33.30;13.93;;;;;;;-0.10;100.00;101881.31;5111203;28;20084;-58
2023/12/07 03:21:44;;;;;;;39.87;13.93;;;;;;;-0.09;100.00;101883.06;5111194;28;20459;-58
2023/12/07 03:24:10;;;;;;;49.33;14.37;;;;;;;-0.10;100.00;101883.94;5111533;28;20038;-59
2023/12/07 03:26:36;;;;;;;47.00;14.07;;;;;;;-0.14;100.00;101873.50;5111215;28;20019;-58
2023/12/07 03:29:02;;;;;;;35.20;15.70;;;;;;;-0.08;100.00;101890.03;5111004;28;20016;-58
2023/12/07 03:31:28;;;;;;;31.33;13.60;;;;;;;-0.08;100.00;101887.41;5104541;28;20080;-58
2023/12/07 03:33:55;;;;;;;63.80;13.77;;;;;;;-0.10;100.00;101870.00;5110703;28;20102;-58
2023/12/07 03:36:20;;;;;;;21.33;13.60;;;;;;;-0.02;100.00;101882.16;5110669;28;20498;-58
2023/12/07 03:38:46;;;;;;;29.40;14.07;;;;;;;-0.02;100.00;101879.56;5098879;28;20027;-58
2023/12/07 03:41:11;;;;;;;36.80;15.20;;;;;;;0.01;100.00;101885.66;5102185;28;20066;-58
2023/12/07 03:43:36;;;;;;;31.67;12.87;;;;;;;0.02;100.00;101896.09;5110846;28;20446;-58
2023/12/07 03:46:06;;;;;;;143.73;21.07;;;;;;;-0.06;100.00;101892.63;5101743;28;20026;-58
2023/12/07 03:48:32;;;;;;;85.25;16.73;;;;;;;-0.10;100.00;101885.69;5096556;28;20027;-58
2023/12/07 03:50:58;;;;;;;83.20;18.00;;;;;;;-0.11;100.00;101895.28;5099631;28;20062;-58
2023/12/07 03:53:23;;;;;;;65.43;16.30;;;;;;;-0.06;100.00;101903.09;5101274;28;20448;-58
2023/12/07 03:55:48;;;;;;;36.57;11.07;;;;;;;-0.05;100.00;101900.47;5110527;28;20080;-58
2023/12/07 03:58:14;;;;;;;37.40;13.83;;;;;;;-0.12;100.00;101900.50;5111008;28;20023;-58
2023/12/07 04:00:42;;;;;;;28.37;11.00;;;;;;;-0.08;100.00;101905.72;5110412;28;20062;-58
2023/12/07 04:03:08;;;;;;;40.03;12.97;;;;;;;-0.11;100.00;101921.41;5110942;28;20027;-58
2023/12/07 04:05:33;;;;;;;74.30;15.30;;;;;;;-0.13;100.00;101919.66;5110601;28;20149;-58
2023/12/07 04:07:59;;;;;;;50.47;14.20;;;;;;;-0.14;100.00;101917.94;5110524;28;20489;-58
2023/12/07 04:10:27;;;;;;;85.00;15.23;;;;;;;-0.17;100.00;101912.72;5110540;28;20072;-58
2023/12/07 04:12:52;;;;;;;37.53;15.27;;;;;;;-0.16;100.00;101909.22;5097237;28;20396;-58
2023/12/07 04:15:19;;;;;;;49.00;13.93;;;;;;;-0.19;100.00;101914.47;5110324;28;20035;-58
2023/12/07 04:17:45;;;;;;;86.20;14.53;;;;;;;-0.13;100.00;101919.66;5100376;28;20034;-58
2023/12/07 04:20:10;;;;;;;43.63;14.27;;;;;;;-0.09;100.00;101921.41;5114743;28;20024;-58
2023/12/07 04:22:36;;;;;;;35.23;17.73;;;;;;;-0.22;100.00;101924.91;5105930;28;20042;-58
2023/12/07 04:25:01;;;;;;;33.37;13.73;;;;;;;-0.21;100.00;101922.28;5100656;28;20084;-58
2023/12/07 04:27:29;;;;;;;40.73;14.23;;;;;;;-0.17;100.00;101921.44;5102403;28;20134;-58
2023/12/07 04:29:57;;;;;;;38.83;15.87;;;;;;;-0.25;100.00;101925.78;5114073;28;20049;-58
2023/12/07 04:32:23;;;;;;;41.57;15.30;;;;;;;-0.25;100.00;101926.66;5101712;28;20042;-58
2023/12/07 04:34:48;;;;;;;47.50;15.23;;;;;;;-0.27;100.00;101932.75;5103121;28;20035;-58
2023/12/07 04:37:14;;;;;;;54.37;15.17;;;;;;;-0.27;100.00;101924.91;5104681;28;20034;-59
2023/12/07 04:39:39;;;;;;;39.73;14.63;;;;;;;-0.25;100.00;101929.28;5114195;28;20031;-58
2023/12/07 04:42:05;;;;;;;51.80;14.30;;;;;;;-0.18;100.00;101934.47;5114520;28;20080;-58
2023/12/07 04:44:30;;;;;;;52.17;14.83;;;;;;;-0.33;100.00;101927.53;5103212;28;20072;-58
2023/12/07 04:46:55;;;;;;;52.67;15.60;;;;;;;-0.36;100.00;101920.56;5114162;28;20042;-58
2023/12/07 04:49:21;;;;;;;30.33;14.03;;;;;;;-0.35;100.00;101917.09;5113589;28;20110;-58
2023/12/07 04:51:46;;;;;;;56.17;12.77;;;;;;;-0.35;100.00;101914.47;5100605;28;20034;-58
2023/12/07 04:54:14;;;;;;;45.03;14.53;;;;;;;-0.32;100.00;101921.44;5108045;28;20028;-58
2023/12/07 04:56:40;;;;;;;28.97;12.23;;;;;;;-0.32;100.00;101917.09;5113862;28;20039;-58
2023/12/07 04:59:06;;;;;;;44.07;14.37;;;;;;;-0.35;100.00;101914.47;5113345;28;20460;-58
2023/12/07 05:01:31;;;;;;;25.50;12.53;;;;;;;-0.35;100.00;101901.41;5113295;28;20027;-58
2023/12/07 05:03:57;;;;;;;44.13;13.53;;;;;;;-0.33;100.00;101896.16;5114095;28;20076;-59
2023/12/07 05:06:22;;;;;;;23.43;13.67;;;;;;;-0.35;100.00;101890.97;5095833;28;20064;-58
2023/12/07 05:08:47;;;;;;;60.57;14.03;;;;;;;-0.26;100.00;101893.56;5113050;28;20047;-58
2023/12/07 05:11:13;;;;;;;46.67;12.00;;;;;;;-0.22;100.00;101893.56;5103257;28;20027;-59
2023/12/07 05:13:38;;;;;;;23.17;12.60;;;;;;;-0.24;100.00;101881.38;5113406;28;20080;-59
2023/12/07 05:16:04;;;;;;;53.97;12.97;;;;;;;-0.15;100.00;101887.44;5071581;28;20035;-59
2023/12/07 05:18:29;;;;;;;39.43;12.20;;;;;;;-0.15;100.00;101895.25;5110310;28;20039;-58
2023/12/07 05:20:55;;;;;;;45.23;12.27;;;;;;;-0.18;100.00;101890.91;5113560;28;20027;-58
2023/12/07 05:23:22;;;;;;;59.10;12.40;;;;;;;-0.15;100.00;101887.44;5113259;28;20380;-58
2023/12/07 05:25:48;;;;;;;38.77;12.70;;;;;;;-0.18;100.00;101890.91;5113605;28;20035;-59
2023/12/07 05:28:14;;;;;;;24.40;12.23;;;;;;;-0.16;100.00;101885.69;5113273;28;20035;-58
2023/12/07 05:30:40;;;;;;;22.30;11.27;;;;;;;-0.14;100.00;101886.56;5102205;28;20050;-58
2023/12/07 05:33:05;;;;;;;38.77;13.33;;;;;;;-0.18;100.00;101872.59;5099933;28;20135;-58
2023/12/07 05:35:33;;;;;;;74.40;14.63;;;;;;;-0.10;100.00;101883.94;5113144;28;20028;-58
2023/12/07 05:37:58;;;;;;;48.73;14.43;;;;;;;-0.09;100.00;101882.19;5113183;27;20353;-58
2023/12/07 05:40:24;;;;;;;27.27;11.97;;;;;;;-0.11;100.00;101881.34;5099378;28;20072;-58
2023/12/07 05:42:52;;;;;;;39.57;14.37;;;;;;;-0.09;100.00;101882.19;5103337;28;20062;-58
2023/12/07 05:45:17;;;;;;;28.40;13.23;;;;;;;-0.07;100.00;101883.06;5099685;28;20027;-58
2023/12/07 05:47:43;;;;;;;29.43;11.50;;;;;;;-0.09;100.00;101880.47;5113307;28;20073;-58
2023/12/07 05:50:09;;;;;;;31.07;12.63;;;;;;;-0.10;100.00;101886.53;5112904;28;20494;-59
2023/12/07 05:52:35;;;;;;;38.57;11.10;;;;;;;-0.07;100.00;101881.31;5100683;28;20035;-58
2023/12/07 05:55:01;;;;;;;37.43;13.17;;;;;;;-0.05;100.00;101884.78;5113123;28;20099;-58
2023/12/07 05:57:26;;;;;;;47.63;13.77;;;;;;;-0.02;100.00;101886.53;5112825;28;20126;-58
2023/12/07 05:59:52;;;;;;;26.40;11.50;;;;;;;-0.03;100.00;101882.16;5097872;28;20611;-58
2023/12/07 06:02:17;;;;;;;24.83;13.40;;;;;;;0.00;100.00;101887.41;5112965;28;20031;-58
2023/12/07 06:04:43;;;;;;;42.47;11.30;;;;;;;0.04;100.00;101885.66;5100037;28;20102;-58
2023/12/07 06:07:12;;;;;;;26.00;12.30;;;;;;;-0.01;100.00;101880.41;5112512;28;20039;-58
2023/12/07 06:09:37;;;;;;;40.28;12.80;;;;;;;0.03;100.00;101879.56;5112274;28;20404;-58
2023/12/07 06:12:05;;;;;;;24.57;12.87;;;;;;;0.08;100.00;101882.13;5112940;28;20038;-58
2023/12/07 06:14:32;;;;;;;52.20;11.60;;;;;;;0.08;100.00;101884.75;5111943;28;20564;-58
2023/12/07 06:16:59;;;;;;;36.80;11.57;;;;;;;-0.01;100.00;101877.81;5112332;28;20416;-58
2023/12/07 06:19:25;;;;;;;26.97;11.07;;;;;;;0.03;100.00;101881.28;5105150;28;20024;-58
2023/12/07 06:21:53;;;;;;;30.50;10.43;;;;;;;0.02;100.00;101888.25;5111916;28;20030;-58
2023/12/07 06:24:18;;;;;;;45.40;10.60;;;;;;;0.05;100.00;101877.78;5112571;28;20024;-58
2023/12/07 06:26:46;;;;;;;40.40;11.10;;;;;;;0.02;100.00;101876.94;5103712;28;20027;-58
2023/12/07 06:29:11;;;;;;;32.73;11.27;;;;;;;0.02;100.00;101880.41;5112249;28;20016;-58
2023/12/07 06:31:42;;;;;;;20.47;11.70;;;;;;;0.08;100.00;101892.59;5112291;28;20053;-58
2023/12/07 06:34:07;;;;;;;28.37;9.67;;;;;;;0.11;100.00;101885.59;5112519;28;20023;-58
2023/12/07 06:36:33;;;;;;;44.47;11.50;;;;;;;0.07;100.00;101878.66;5105747;28;20012;-58
2023/12/07 06:38:58;;;;;;;25.27;10.73;;;;;;;0.12;100.00;101878.63;5112441;28;20024;-58
2023/12/07 06:41:23;;;;;;;30.60;11.30;;;;;;;0.12;100.00;101871.69;5110664;28;20019;-59
2023/12/07 06:43:49;;;;;;;35.20;9.53;;;;;;;0.10;100.00;101860.34;5100599;28;20056;-58
2023/12/07 06:46:16;;;;;;;31.93;9.93;;;;;;;0.11;100.00;101842.91;5111586;28;20015;-58
2023/12/07 06:48:42;;;;;;;42.23;11.03;;;;;;;0.16;100.00;101851.59;5111090;28;20015;-58
2023/12/07 06:51:07;;;;;;;19.17;11.23;;;;;;;0.11;100.00;101835.91;5099521;28;20391;-58
2023/12/07 06:53:32;;;;;;;29.20;10.70;;;;;;;0.15;100.00;101832.44;5111444;28;20109;-58
2023/12/07 06:55:58;;;;;;;25.30;11.60;;;;;;;0.17;100.00;101842.88;5097211;28;20464;-58
2023/12/07 06:58:24;;;;;;;20.97;12.07;;;;;;;0.12;100.00;101842.00;5095772;28;20334;-58
2023/12/07 07:00:49;;;;;;;32.40;11.47;;;;;;;0.16;100.00;101854.22;5110726;28;20476;-58
2023/12/07 07:03:15;;;;;;;32.53;10.90;;;;;;;0.20;100.00;101848.09;5102161;28;20023;-58
2023/12/07 07:05:40;;;;;;;80.83;17.07;;;;;;;0.19;100.00;101846.34;5111312;28;20015;-58
2023/12/07 07:08:07;;;;;;;51.37;12.07;;;;;;;0.23;100.00;101848.06;5112186;28;20525;-58
2023/12/07 07:10:35;;;;;;;46.70;13.77;;;;;;;0.19;100.00;101848.97;5111416;28;20479;-58
2023/12/07 07:13:05;;;;;;;37.67;12.43;;;;;;;0.22;100.00;101854.19;5112471;28;20437;-58
2023/12/07 07:15:34;;;;;;;23.83;11.43;;;;;;;0.20;100.00;101862.03;5093475;28;20037;-59
2023/12/07 07:18:00;;;;;;;33.93;13.20;;;;;;;0.22;100.00;101856.81;5100420;28;20279;-59
2023/12/07 07:20:26;;;;;;;34.73;12.53;;;;;;;0.20;100.00;101858.56;5110806;28;20020;-59
2023/12/07 07:22:54;;;;;;;25.33;12.40;;;;;;;0.23;100.00;101863.78;5110598;28;20429;-59
2023/12/07 07:25:19;;;;;;;39.03;12.93;;;;;;;0.21;100.00;101866.41;5111490;28;20016;-59
2023/12/07 07:27:48;;;;;;;30.87;13.40;;;;;;;0.25;100.00;101879.47;5110902;28;20050;-59
2023/12/07 07:30:13;;;;;;;18.77;9.60;;;;;;;0.31;100.00;101875.09;5097801;28;20128;-59
2023/12/07 07:32:42;;;;;;;24.33;11.33;;;;;;;0.28;100.00;101874.22;5111907;28;20038;-59
2023/12/07 07:35:07;;;;;;;29.47;13.17;;;;;;;0.28;100.00;101869.00;5097737;28;20114;-59
2023/12/07 07:37:33;;;;;;;23.57;12.70;;;;;;;0.30;100.00;101870.75;5111478;28;20152;-59
2023/12/07 07:39:59;;;;;;;33.77;14.33;;;;;;;0.33;100.00;101880.31;5111168;28;20194;-59
2023/12/07 07:42:25;;;;;;;24.80;12.70;;;;;;;0.29;100.00;101874.22;5102400;28;20044;-59
2023/12/07 07:44:50;;;;;;;26.43;13.37;;;;;;;0.35;100.00;101876.78;5106504;28;20031;-59
2023/12/07 07:47:17;;;;;;;31.33;15.07;;;;;;;0.37;100.00;101861.97;5099922;28;20118;-59
2023/12/07 07:49:42;;;;;;;32.07;13.47;;;;;;;0.41;100.00;101868.94;5104433;28;20056;-59
2023/12/07 07:52:08;;;;;;;33.00;12.47;;;;;;;0.45;100.00;101867.19;5112187;28;20016;-59
2023/12/07 07:54:33;;;;;;;29.17;15.07;;;;;;;0.45;100.00;101873.28;5093945;28;20437;-60
2023/12/07 07:56:59;;;;;;;31.03;15.03;;;;;;;0.41;100.00;101855.88;5112389;28;20041;-59
2023/12/07 07:59:24;;;;;;;33.67;15.63;;;;;;;0.49;100.00;101861.03;5112144;28;20028;-59
2023/12/07 08:01:50;;;;;;;55.13;15.63;;;;;;;0.53;100.00;101867.13;5111546;28;20087;-59
2023/12/07 08:04:16;;;;;;;23.37;13.67;;;;;;;0.54;100.00;101866.28;5111762;28;20022;-59
2023/12/07 08:06:41;;;;;;;37.67;14.47;;;;;;;0.53;100.00;101854.94;5112175;28;20061;-59
2023/12/07 08:09:08;;;;;;;39.63;15.33;;;;;;;0.48;100.00;101845.38;5112024;28;20076;-59
2023/12/07 08:11:36;;;;;;;28.70;14.57;;;;;;;0.56;100.00;101865.38;5093323;28;20088;-59
2023/12/07 08:14:02;;;;;;;32.53;15.07;;;;;;;0.55;100.00;101858.38;5108431;28;20023;-59
2023/12/07 08:16:27;;;;;;;29.33;14.13;;;;;;;0.56;100.00;101857.53;5127245;28;20020;-59
2023/12/07 08:18:53;;;;;;;21.87;12.67;;;;;;;0.60;100.00;101864.47;5092121;28;20040;-59
2023/12/07 08:21:22;;;;;;;25.30;13.10;;;;;;;0.61;100.00;101863.59;5111042;28;20034;-59
2023/12/07 08:23:47;;;;;;;30.60;13.40;;;;;;;0.62;100.00;101873.19;5111596;28;20030;-59
2023/12/07 08:26:14;;;;;;;26.43;13.73;;;;;;;0.57;100.00;101874.97;5092835;28;20380;-59
2023/12/07 08:28:43;;;;;;;24.70;11.80;;;;;;;0.55;100.00;101865.38;5107053;28;20028;-59
2023/12/07 08:31:08;;;;;;;27.20;13.77;;;;;;;0.52;100.00;101868.00;5110574;28;20027;-59
2023/12/07 08:33:34;;;;;;;27.90;13.90;;;;;;;0.55;100.00;101862.75;5111027;28;20030;-59
2023/12/07 08:36:00;;;;;;;28.00;12.53;;;;;;;0.47;100.00;101849.69;5110868;28;20110;-59
2023/12/07 08:38:25;;;;;;;24.93;13.43;;;;;;;0.55;100.00;101860.16;5110518;28;20020;-59
2023/12/07 08:40:51;;;;;;;49.70;14.63;;;;;;;0.53;100.00;101860.16;5111455;28;20422;-59
2023/12/07 08:43:22;;;;;;;19.73;12.40;;;;;;;0.60;100.00;101874.94;5092420;28;20037;-59
2023/12/07 08:45:48;;;;;;;24.33;13.40;;;;;;;0.59;100.00;101865.38;5110550;28;20022;-59
2023/12/07 08:48:13;;;;;;;21.90;13.30;;;;;;;0.54;100.00;101868.88;5092775;28;20031;-59
2023/12/07 08:50:39;;;;;;;22.73;13.40;;;;;;;0.61;100.00;101879.28;5109950;28;20076;-59
2023/12/07 08:53:05;;;;;;;25.63;14.53;;;;;;;0.59;100.00;101878.47;5111893;28;20023;-59
2023/12/07 08:55:33;;;;;;;28.67;14.70;;;;;;;0.63;100.00;101874.06;5092551;28;20024;-58
2023/12/07 08:57:59;;;;;;;28.03;15.67;;;;;;;0.59;100.00;101865.38;5111424;28;20035;-58
2023/12/07 09:00:25;;;;;;;26.67;13.33;;;;;;;0.60;100.00;101859.25;5092719;28;20027;-58
2023/12/07 09:02:51;;;;;;;23.33;13.47;;;;;;;0.74;100.00;101872.25;5111239;28;20031;-58
2023/12/07 09:05:17;;;;;;;25.90;13.53;;;;;;;0.72;100.00;101871.38;5095597;28;20068;-58
2023/12/07 09:07:43;;;;;;;34.13;15.53;;;;;;;0.76;100.00;101861.75;5115039;28;20047;-58
2023/12/07 09:10:09;;;;;;;24.67;14.93;;;;;;;0.73;100.00;101862.66;5115264;28;20024;-58
2023/12/07 09:12:35;;;;;;;28.97;14.80;;;;;;;0.83;100.00;101866.09;5096661;28;20023;-58
2023/12/07 09:15:02;;;;;;;30.07;16.33;;;;;;;0.82;100.00;101853.88;5095888;28;20466;-58
2023/12/07 09:17:27;;;;;;;32.67;15.30;;;;;;;0.81;100.00;101853.00;5113597;28;20023;-58
2023/12/07 09:19:53;;;;;;;25.47;13.27;;;;;;;0.88;100.00;101859.06;5114722;28;20016;-58
2023/12/07 09:22:21;;;;;;;27.60;15.07;;;;;;;0.85;100.00;101859.09;5096724;28;20065;-58
2023/12/07 09:24:47;;;;;;;30.43;16.10;;;;;;;0.88;100.00;101857.34;5114779;28;20019;-58
2023/12/07 09:27:15;;;;;;;36.97;16.63;;;;;;;0.90;100.00;101858.19;5114630;28;20535;-58
2023/12/07 09:29:41;;;;;;;36.60;16.67;;;;;;;0.96;100.00;101852.03;5094548;28;20361;-58
2023/12/07 09:32:07;;;;;;;38.13;16.00;;;;;;;0.99;100.00;101844.16;5114856;28;20107;-58
2023/12/07 09:34:33;;;;;;;34.87;17.43;;;;;;;1.02;100.00;101844.13;5094049;28;20541;-58
2023/12/07 09:37:11;;;;;;;38.53;16.70;;;;;;;1.10;100.00;101842.31;5094385;28;20016;-58
2023/12/07 09:39:36;;;;;;;33.10;16.83;;;;;;;1.16;100.00;101835.31;5094132;28;20099;-58
2023/12/07 09:42:02;;;;;;;38.23;15.70;;;;;;;1.13;100.00;101823.09;5094319;28;20038;-58
2023/12/07 09:44:28;;;;;;;39.17;19.03;;;;;;;1.19;100.00;101833.53;5093873;28;20024;-58
2023/12/07 09:46:54;;;;;;;33.57;17.47;;;;;;;1.28;100.00;101836.06;5059084;28;20074;-58
2023/12/07 09:49:21;;;;;;;29.43;16.63;;;;;;;1.30;100.00;101829.06;5094112;28;20020;-58
2023/12/07 09:51:50;;;;;;;33.13;15.73;;;;;;;1.36;100.00;101826.38;5094015;28;20016;-58
2023/12/07 09:54:17;;;;;;;34.50;16.48;;;;;;;1.41;100.00;101809.72;5093960;28;20031;-59
2023/12/07 09:56:43;;;;;;;27.87;16.13;;;;;;;1.59;100.00;101815.69;5075567;28;20028;-58
2023/12/07 09:59:09;;;;;;;28.50;15.07;;;;;;;1.67;100.00;101805.09;5093909;28;20111;-58
2023/12/07 10:01:38;;;;;;;29.83;15.57;;;;;;;1.79;100.00;101804.09;5075452;28;20119;-58
2023/12/07 10:04:18;;;;;;;24.98;14.93;;;;;;;1.86;100.00;101790.03;5075813;28;20110;-58
2023/12/07 10:06:47;;;;;;;25.43;14.70;;;;;;;1.89;100.00;101784.75;5093575;28;20020;-58
2023/12/07 10:09:13;;;;;;;26.25;14.70;;;;;;;2.05;100.00;101782.78;5093648;28;20051;-58
2023/12/07 10:11:40;;;;;;;23.40;14.60;;;;;;;2.17;100.00;101779.16;5093761;28;20028;-58
2023/12/07 10:14:07;;;;;;;31.30;16.13;;;;;;;2.26;100.00;101771.13;5093879;28;20028;-58
2023/12/07 10:16:36;;;;;;;23.90;15.30;;;;;;;2.37;100.00;101777.13;5092737;28;20035;-58
2023/12/07 10:19:21;;;;;;;24.83;14.33;;;;;;;2.42;100.00;101770.03;5093553;28;20028;-58
2023/12/07 10:21:47;;;;;;;24.57;13.87;;;;;;;2.37;100.00;101764.00;5112046;28;20039;-58
2023/12/07 10:24:13;;;;;;;25.03;14.07;;;;;;;2.45;100.00;101756.88;5113882;28;20030;-58
2023/12/07 10:26:40;;;;;;;23.55;14.55;;;;;;;2.47;100.00;101749.84;5095602;28;20024;-58
2023/12/07 10:29:05;;;;;;;20.60;11.83;;;;;;;2.50;100.00;101751.56;5095440;28;20050;-58
2023/12/07 10:31:32;;;;;;;22.15;13.35;;;;;;;2.69;100.00;101747.75;5113018;28;20055;-59
2023/12/07 10:33:59;;;;;;;22.15;14.10;;;;;;;3.01;100.00;101745.50;5095419;28;20023;-58
2023/12/07 10:36:27;;;;;;;23.45;13.77;;;;;;;3.31;100.00;101744.06;5113491;28;20028;-58
2023/12/07 10:38:53;;;;;;;28.17;13.25;;;;;;;3.72;100.00;101740.63;5095201;28;20438;-58
2023/12/07 10:41:20;;;;;;;22.10;12.52;;;;;;;4.07;100.00;101739.91;5113415;28;20494;-58
2023/12/07 10:43:51;;;;;;;22.27;12.13;;;;;;;4.13;100.00;101724.88;5113168;28;20035;-58
2023/12/07 10:46:20;;;;;;;20.98;11.73;;;;;;;4.35;100.00;101727.88;5112692;28;20243;-58
2023/12/07 10:48:48;;;;;;;18.88;12.55;;;;;;;4.51;100.00;101719.59;5095285;28;20024;-58
2023/12/07 10:51:20;;;;;;;20.60;11.50;;;;;;;4.69;100.00;101704.25;5113216;28;20098;-58
2023/12/07 10:53:50;;;;;;;17.63;11.23;;;;;;;4.94;100.00;101718.53;5113313;28;20028;-59
2023/12/07 10:56:19;;;;;;;;;;;;;;;5.04;100.00;101713.88;5113593;28;20102;-59
2023/12/07 10:58:45;;;;;;;17.02;12.07;;;;;;;4.99;100.00;101716.63;5113141;28;19918;-59
2023/12/07 11:01:11;;;;;;;15.98;11.48;;;;;;;5.07;100.00;101711.16;5094688;28;20020;-58
2023/12/07 11:03:40;;;;;;;16.42;10.90;;;;;;;5.14;99.95;101699.53;5094919;28;20110;-58